SBOSBO GIB / LXGB
Speedbird OnlineSpeedbird Online GIB / LXGB

Gibraltar Airport
17:24 22°C

Location Gibraltar, Gibraltar
Latitude: 36.1511993408
Longitude: -5.3496599197400005
Local Time 17:24 on 30 May 2024
UTC +2 hours (Europe/Gibraltar)
Currency £1 equals GIP 1.01
METAR LXGB 301450Z AUTO 08007KT 9999 NCD 22/16 Q1010
TAF TAF LXGB 301349Z 3015/3022 10005KT CAVOK TEMPO 3015/3022 VRB02KT
Weather As Of 30 May 2024 17:24
Description Clear sky
Wind 13 km/h from East (80°)
Cloud Cover 0%
Precipitation Rain: none, Snow: none
Sunrise 07:06
Sunset 21:31
NOTAM 9 active NOTAM
Rotations During the last 90 days there were
135 flights from LHR
2 flights from AGP
139 flights to LHR
Lounges Calpe Lounge , Main
Web Wikipedia
Codes IATA: GIB
ICAO: LXGB
Altitude 5 Meter / 15 Feet
Distance 1,762 KM / 1,095 Miles
from London.
Runways
RunwayLength (m)Surface
091829Asphalt
271829Asphalt
Radio
TypeDescriptionFrequency
A/DAPP122.8
OPSGIB TALKDOWN130.4
TWRTWR131.2
Live ATC



Support Speedbird Online

© 2017-2024 Speedbird Online